Time;durP1;ratioP1;P1;durP2;ratioP2;P2;SDS_P1;SDS_P2;PMS_P1;PMS_P2;Temp;Humidity;BMP_temperature;BMP_pressure;BME280_temperature;BME280_humidity;BME280_pressure;Samples;Min_cycle;Max_cycle;Signal;HPM_P1;HPM_P2
2023/05/02 00:02:01;;;;;;;11.63;11.03;;;14.10;37.10;;;;;;5065775;28;20188;-62
2023/05/02 00:04:27;;;;;;;11.90;11.40;;;14.10;37.10;;;;;;5065715;28;20558;-62
2023/05/02 00:06:52;;;;;;;11.30;10.80;;;14.10;37.30;;;;;;5065036;28;20423;-62
2023/05/02 00:09:18;;;;;;;12.20;11.70;;;14.10;37.10;;;;;;5066197;28;20191;-62
2023/05/02 00:11:44;;;;;;;11.53;10.93;;;14.10;37.10;;;;;;5064169;28;20777;-62
2023/05/02 00:14:09;;;;;;;12.10;11.60;;;14.00;37.00;;;;;;5064189;28;20580;-62
2023/05/02 00:16:35;;;;;;;11.50;11.00;;;14.00;36.90;;;;;;5062926;28;20178;-62
2023/05/02 00:19:01;;;;;;;11.23;10.73;;;14.00;37.10;;;;;;5065995;28;20397;-62
2023/05/02 00:21:28;;;;;;;11.60;11.10;;;14.00;36.80;;;;;;5062696;28;20582;-62
2023/05/02 00:23:55;;;;;;;12.17;11.47;;;14.10;36.50;;;;;;5064549;28;20563;-62
2023/05/02 00:26:22;;;;;;;12.10;11.60;;;14.10;36.40;;;;;;5082564;28;20892;-62
2023/05/02 00:28:47;;;;;;;11.93;11.33;;;14.10;36.40;;;;;;5063804;28;20484;-62
2023/05/02 00:31:13;;;;;;;11.77;11.27;;;14.10;36.30;;;;;;5065185;28;20421;-63
2023/05/02 00:33:39;;;;;;;11.40;10.90;;;14.10;36.10;;;;;;5062177;28;20522;-62
2023/05/02 00:36:15;;;;;;;12.47;11.87;;;14.10;36.10;;;;;;5063400;28;20512;-63
2023/05/02 00:38:41;;;;;;;12.27;11.77;;;14.00;37.00;;;;;;5063509;28;20199;-62
2023/05/02 00:41:06;;;;;;;12.57;12.03;;;14.00;36.30;;;;;;5061705;28;20523;-62
2023/05/02 00:43:32;;;;;;;12.53;11.93;;;13.90;36.00;;;;;;5061957;28;20273;-62
2023/05/02 00:45:58;;;;;;;12.00;11.50;;;13.90;36.60;;;;;;5061967;28;20590;-61
2023/05/02 00:48:24;;;;;;;12.07;11.57;;;13.90;36.80;;;;;;5061959;28;20522;-62
2023/05/02 00:50:50;;;;;;;11.83;11.33;;;13.90;36.70;;;;;;5063402;28;20170;-61
2023/05/02 00:53:16;;;;;;;12.53;12.03;;;13.90;36.50;;;;;;5064160;28;20641;-54
2023/05/02 00:55:42;;;;;;;12.73;12.13;;;13.90;36.40;;;;;;5062298;28;20464;-53
2023/05/02 00:58:13;;;;;;;13.10;12.50;;;13.90;36.60;;;;;;5063935;28;20662;-51
2023/05/02 01:00:55;;;;;;;13.00;12.40;;;13.90;36.80;;;;;;5064846;28;20182;-54
2023/05/02 01:03:34;;;;;;;13.43;12.83;;;13.90;36.50;;;;;;5064238;28;20465;-53
2023/05/02 01:06:10;;;;;;;12.40;11.90;;;13.90;36.30;;;;;;5061491;28;20417;-52
2023/05/02 01:09:17;;;;;;;12.77;12.17;;;13.80;36.50;;;;;;5062293;28;20416;-55
2023/05/02 01:12:04;;;;;;;12.07;11.40;;;13.80;36.50;;;;;;5063840;28;20427;-55
2023/05/02 01:14:38;;;;;;;12.20;11.70;;;13.80;36.60;;;;;;5062736;28;20534;-54
2023/05/02 01:17:08;;;;;;;11.57;11.03;;;13.80;36.40;;;;;;5062911;28;20836;-55
2023/05/02 01:19:42;;;;;;;12.80;12.10;;;13.80;36.10;;;;;;5063531;28;20421;-54
2023/05/02 01:22:10;;;;;;;12.07;11.57;;;13.80;36.30;;;;;;5063871;28;20413;-53
2023/05/02 01:25:07;;;;;;;11.50;11.00;;;13.80;36.30;;;;;;5065080;28;20811;-52
2023/05/02 01:27:49;;;;;;;12.90;12.40;;;13.70;35.90;;;;;;5068552;28;20915;-54
2023/05/02 01:30:16;;;;;;;11.93;11.33;;;13.70;36.20;;;;;;5067631;28;20441;-56
2023/05/02 01:32:44;;;;;;;11.70;11.10;;;13.70;36.40;;;;;;5048539;28;20424;-54
2023/05/02 01:35:12;;;;;;;12.30;11.80;;;13.70;36.50;;;;;;5066589;28;20555;-54
2023/05/02 01:37:40;;;;;;;12.30;11.80;;;13.70;36.30;;;;;;5067114;28;20900;-54
2023/05/02 01:40:07;;;;;;;11.13;10.70;;;13.70;36.20;;;;;;5067469;28;20417;-53
2023/05/02 01:42:36;;;;;;;12.83;12.23;;;13.70;35.70;;;;;;5068277;28;20473;-54
2023/05/02 01:45:04;;;;;;;13.03;12.43;;;13.80;35.60;;;;;;5065030;28;20426;-54
2023/05/02 01:47:34;;;;;;;12.83;12.33;;;13.70;35.50;;;;;;5067846;28;20507;-55
2023/05/02 01:50:02;;;;;;;12.57;11.87;;;13.70;35.30;;;;;;5067445;28;20436;-54
2023/05/02 01:52:29;;;;;;;11.70;11.30;;;13.60;35.50;;;;;;5068186;28;20420;-62
2023/05/02 01:54:58;;;;;;;12.43;11.93;;;13.60;35.70;;;;;;5067121;28;20460;-62
2023/05/02 01:57:24;;;;;;;12.50;12.00;;;13.60;35.60;;;;;;5066519;28;20557;-57
2023/05/02 01:59:51;;;;;;;13.10;12.40;;;13.60;36.10;;;;;;5067669;28;20776;-54
2023/05/02 02:02:18;;;;;;;12.83;12.23;;;13.60;36.30;;;;;;5065500;28;20412;-54
2023/05/02 02:04:47;;;;;;;12.47;11.87;;;13.60;36.20;;;;;;5065838;28;20447;-55
2023/05/02 02:07:13;;;;;;;13.57;13.03;;;13.60;36.50;;;;;;5085407;28;20908;-53
2023/05/02 02:09:40;;;;;;;13.43;12.83;;;13.60;36.60;;;;;;5064960;28;20436;-54
2023/05/02 02:12:22;;;;;;;12.20;11.70;;;13.60;36.80;;;;;;5066102;28;20424;-53
2023/05/02 02:14:55;;;;;;;12.73;12.13;;;13.60;36.60;;;;;;5066265;28;20475;-55
2023/05/02 02:17:31;;;;;;;12.43;11.83;;;13.60;36.30;;;;;;5066747;28;20424;-52
2023/05/02 02:20:02;;;;;;;13.13;12.40;;;13.60;36.10;;;;;;5065605;28;20424;-54
2023/05/02 02:22:29;;;;;;;13.63;12.87;;;13.60;36.20;;;;;;5066393;28;20768;-54
2023/05/02 02:24:56;;;;;;;13.30;12.70;;;13.50;36.40;;;;;;5065097;28;20812;-54
2023/05/02 02:27:21;;;;;;;12.20;11.70;;;13.50;36.30;;;;;;5065012;28;20416;-61
2023/05/02 02:29:47;;;;;;;12.30;11.73;;;13.40;36.10;;;;;;5064568;28;20794;-62
2023/05/02 02:32:13;;;;;;;12.50;12.00;;;13.40;36.80;;;;;;5064785;28;20178;-62
2023/05/02 02:34:38;;;;;;;13.00;12.40;;;13.40;36.40;;;;;;5064659;28;20218;-61
2023/05/02 02:37:12;;;;;;;13.17;12.57;;;13.40;36.60;;;;;;5064480;28;20522;-62
2023/05/02 02:39:53;;;;;;;12.57;12.07;;;13.30;36.80;;;;;;5066067;28;20181;-61
2023/05/02 02:42:27;;;;;;;12.50;12.00;;;13.30;36.60;;;;;;5065756;28;20420;-62
2023/05/02 02:45:05;;;;;;;13.23;12.73;;;13.40;36.80;;;;;;5065531;28;20779;-63
2023/05/02 02:47:40;;;;;;;13.40;12.80;;;13.30;36.60;;;;;;5066610;28;20468;-62
2023/05/02 02:50:21;;;;;;;12.90;12.23;;;13.30;36.70;;;;;;5068524;28;20440;-62
2023/05/02 02:53:04;;;;;;;14.00;13.10;;;13.30;36.90;;;;;;5067138;28;20457;-62
2023/05/02 02:55:45;;;;;;;13.60;13.00;;;13.30;36.60;;;;;;5063690;28;20498;-62
2023/05/02 02:58:33;;;;;;;13.60;12.90;;;13.30;36.30;;;;;;5065917;28;20527;-63
2023/05/02 03:01:03;;;;;;;13.67;12.97;;;13.30;36.00;;;;;;5065162;28;20424;-61
2023/05/02 03:03:31;;;;;;;13.87;13.27;;;13.20;36.30;;;;;;5065710;28;20408;-62
2023/05/02 03:05:58;;;;;;;14.90;14.20;;;13.20;36.50;;;;;;5066694;28;20478;-62
2023/05/02 03:08:23;;;;;;;14.03;13.43;;;13.20;36.80;;;;;;5067622;28;20420;-62
2023/05/02 03:10:50;;;;;;;14.00;13.40;;;13.20;36.80;;;;;;5065979;28;20455;-62
2023/05/02 03:13:16;;;;;;;12.87;12.10;;;13.20;37.10;;;;;;5065354;28;20182;-62
2023/05/02 03:15:50;;;;;;;13.40;12.80;;;13.20;37.10;;;;;;5064749;28;20929;-62
2023/05/02 03:18:16;;;;;;;14.67;13.87;;;13.30;37.20;;;;;;5062818;28;20443;-61
2023/05/02 03:20:42;;;;;;;14.43;13.73;;;13.30;37.30;;;;;;5062966;28;20453;-61
2023/05/02 03:23:08;;;;;;;13.00;12.50;;;13.30;37.10;;;;;;5066397;28;20413;-62
2023/05/02 03:25:33;;;;;;;13.30;12.80;;;13.30;36.90;;;;;;5068029;28;20540;-61
2023/05/02 03:27:59;;;;;;;13.80;13.20;;;13.40;37.00;;;;;;5065027;28;20186;-62
2023/05/02 03:30:24;;;;;;;13.90;13.30;;;13.40;37.50;;;;;;5066928;28;20185;-62
2023/05/02 03:32:51;;;;;;;13.87;12.97;;;13.40;36.80;;;;;;5067588;28;20178;-62
2023/05/02 03:35:17;;;;;;;13.33;12.73;;;13.40;37.00;;;;;;5070075;28;20216;-63
2023/05/02 03:37:43;;;;;;;13.20;12.50;;;13.40;36.80;;;;;;5067901;28;20512;-62
2023/05/02 03:40:09;;;;;;;14.67;13.97;;;13.50;36.50;;;;;;5071250;28;20441;-62
2023/05/02 03:42:41;;;;;;;14.37;13.77;;;13.40;36.60;;;;;;5069613;28;20416;-62
2023/05/02 03:45:07;;;;;;;13.43;12.83;;;13.40;36.50;;;;;;5070219;28;20432;-62
2023/05/02 03:47:33;;;;;;;13.90;13.20;;;13.40;36.90;;;;;;5070928;28;20515;-62
2023/05/02 03:49:59;;;;;;;14.50;13.90;;;13.40;36.70;;;;;;5071874;28;20523;-62
2023/05/02 03:52:25;;;;;;;13.87;13.20;;;13.40;36.90;;;;;;5074127;28;20182;-62
2023/05/02 03:54:51;;;;;;;14.10;13.50;;;13.40;37.50;;;;;;5072834;28;20460;-62
2023/05/02 03:57:17;;;;;;;13.70;13.10;;;13.40;37.50;;;;;;5092819;28;20171;-62
2023/05/02 03:59:44;;;;;;;14.40;13.70;;;13.40;37.10;;;;;;5073471;28;20658;-62
2023/05/02 04:02:10;;;;;;;13.23;12.63;;;13.40;37.40;;;;;;5074611;28;20424;-62
2023/05/02 04:04:37;;;;;;;13.73;13.10;;;13.40;37.20;;;;;;5072972;28;20450;-62
2023/05/02 04:07:03;;;;;;;13.70;13.10;;;13.40;36.70;;;;;;5074248;28;20917;-62
2023/05/02 04:09:29;;;;;;;15.40;14.70;;;13.50;36.90;;;;;;5073785;28;20452;-61
2023/05/02 04:11:55;;;;;;;12.83;12.23;;;13.50;36.80;;;;;;5073279;28;20779;-62
2023/05/02 04:14:20;;;;;;;14.73;14.00;;;13.50;36.50;;;;;;5072779;28;20503;-62
2023/05/02 04:16:53;;;;;;;14.37;13.53;;;13.40;36.30;;;;;;5056860;28;20266;-62
2023/05/02 04:19:18;;;;;;;13.93;13.23;;;13.40;37.00;;;;;;5071780;28;20639;-62
2023/05/02 04:21:44;;;;;;;14.20;13.40;;;13.40;36.80;;;;;;5071923;28;20420;-62
2023/05/02 04:24:10;;;;;;;15.10;14.43;;;13.40;36.40;;;;;;5072630;28;20205;-62
2023/05/02 04:26:36;;;;;;;14.50;13.80;;;13.30;36.70;;;;;;5073619;28;20417;-61
2023/05/02 04:29:03;;;;;;;13.63;12.93;;;13.20;37.70;;;;;;5073433;28;20175;-61
2023/05/02 04:31:30;;;;;;;14.80;14.13;;;13.10;37.70;;;;;;5073034;28;20179;-62
2023/05/02 04:33:56;;;;;;;14.83;14.13;;;13.10;38.40;;;;;;5073770;28;20901;-62
2023/05/02 04:36:21;;;;;;;14.37;13.47;;;13.10;38.60;;;;;;5073724;28;20428;-62
2023/05/02 04:38:47;;;;;;;14.13;13.53;;;13.20;38.40;;;;;;5073835;28;20171;-61
2023/05/02 04:41:14;;;;;;;15.43;14.63;;;13.30;38.00;;;;;;5070091;28;20572;-61
2023/05/02 04:43:40;;;;;;;14.53;13.83;;;13.40;37.70;;;;;;5072971;28;20182;-60
2023/05/02 04:46:06;;;;;;;14.50;13.87;;;13.50;37.50;;;;;;5087995;28;20757;-59
2023/05/02 04:48:32;;;;;;;15.77;14.97;;;13.50;37.40;;;;;;5077771;28;20193;-56
2023/05/02 04:50:58;;;;;;;15.00;14.30;;;13.50;37.20;;;;;;5073624;28;20606;-55
2023/05/02 04:53:23;;;;;;;15.57;14.87;;;13.60;37.20;;;;;;5073165;28;20511;-55
2023/05/02 04:55:49;;;;;;;14.30;13.60;;;13.60;37.10;;;;;;5091613;28;20225;-55
2023/05/02 04:58:15;;;;;;;15.93;15.10;;;13.60;37.20;;;;;;5074260;28;20178;-55
2023/05/02 05:00:41;;;;;;;15.47;14.50;;;13.60;36.90;;;;;;5074225;28;20777;-55
2023/05/02 05:03:06;;;;;;;16.20;14.80;;;13.30;37.60;;;;;;5071283;28;20178;-55
2023/05/02 05:05:32;;;;;;;15.73;14.83;;;13.30;37.80;;;;;;5073124;28;20642;-54
2023/05/02 05:07:58;;;;;;;15.40;14.70;;;13.30;38.40;;;;;;5071775;28;20583;-54
2023/05/02 05:10:24;;;;;;;16.70;16.00;;;13.40;38.50;;;;;;5070936;28;20540;-59
2023/05/02 05:12:49;;;;;;;15.33;14.53;;;13.50;38.30;;;;;;5071493;28;20662;-60
2023/05/02 05:15:15;;;;;;;14.90;14.30;;;13.60;37.90;;;;;;5055986;28;20233;-60
2023/05/02 05:17:41;;;;;;;14.90;14.00;;;13.70;37.50;;;;;;5072271;28;20185;-61
2023/05/02 05:20:09;;;;;;;22.20;20.60;;;13.70;37.10;;;;;;5070449;28;20467;-62
2023/05/02 05:22:41;;;;;;;16.10;15.30;;;13.70;35.90;;;;;;5072120;28;20179;-62
2023/05/02 05:25:10;;;;;;;16.90;16.10;;;13.60;36.80;;;;;;5072826;28;20497;-61
2023/05/02 05:27:36;;;;;;;17.73;16.63;;;13.70;35.90;;;;;;5072611;28;20431;-61
2023/05/02 05:30:03;;;;;;;19.13;17.77;;;13.60;36.00;;;;;;5072893;28;20431;-61
2023/05/02 05:32:29;;;;;;;16.53;15.63;;;13.60;36.30;;;;;;5070697;28;20774;-62
2023/05/02 05:34:54;;;;;;;17.23;16.23;;;13.60;36.40;;;;;;5071258;28;20448;-61
2023/05/02 05:37:20;;;;;;;16.17;15.37;;;13.60;35.70;;;;;;5064946;28;20222;-62
2023/05/02 05:39:47;;;;;;;16.50;15.50;;;13.60;35.90;;;;;;5067949;28;20271;-63
2023/05/02 05:42:13;;;;;;;16.47;15.67;;;13.50;35.80;;;;;;5071550;28;20920;-63
2023/05/02 05:44:38;;;;;;;17.50;16.50;;;13.50;35.80;;;;;;5071285;28;20418;-62
2023/05/02 05:47:04;;;;;;;16.90;16.10;;;13.60;36.40;;;;;;5071245;28;20239;-62
2023/05/02 05:49:31;;;;;;;17.40;16.37;;;13.60;35.60;;;;;;5069648;28;20539;-63
2023/05/02 05:51:58;;;;;;;15.50;14.70;;;13.60;35.10;;;;;;5069405;28;20424;-62
2023/05/02 05:54:23;;;;;;;16.80;16.00;;;13.60;36.10;;;;;;5069415;28;21436;-63
2023/05/02 05:56:49;;;;;;;16.87;15.97;;;13.70;35.60;;;;;;5070600;28;20421;-59
2023/05/02 05:59:15;;;;;;;17.80;16.77;;;13.60;35.20;;;;;;5070092;28;20235;-50
2023/05/02 06:01:40;;;;;;;19.47;18.40;;;13.70;36.00;;;;;;5079953;28;20187;-50
2023/05/02 06:04:06;;;;;;;17.27;16.37;;;13.70;34.70;;;;;;5079179;28;20549;-54
2023/05/02 06:06:32;;;;;;;17.13;16.10;;;13.60;34.90;;;;;;5066527;28;20229;-54
2023/05/02 06:08:58;;;;;;;18.37;17.33;;;13.70;34.80;;;;;;5068412;28;20941;-50
2023/05/02 06:11:25;;;;;;;18.40;17.50;;;13.70;34.70;;;;;;5067130;28;20189;-49
2023/05/02 06:13:51;;;;;;;19.20;17.93;;;13.70;34.70;;;;;;5070831;28;20784;-49
2023/05/02 06:16:17;;;;;;;19.10;18.10;;;13.70;34.50;;;;;;5072925;28;20425;-51
2023/05/02 06:18:44;;;;;;;19.77;18.77;;;13.80;34.80;;;;;;5072099;28;20507;-50
2023/05/02 06:21:09;;;;;;;19.20;18.00;;;13.80;34.80;;;;;;5071207;28;20672;-52
2023/05/02 06:23:35;;;;;;;20.43;19.23;;;13.80;34.80;;;;;;5073184;28;20452;-53
2023/05/02 06:26:02;;;;;;;19.97;18.87;;;13.80;34.40;;;;;;5076506;28;20211;-51
2023/05/02 06:28:29;;;;;;;19.83;18.77;;;13.80;34.50;;;;;;5074103;28;20244;-51
2023/05/02 06:31:00;;;;;;;19.20;18.20;;;13.80;34.90;;;;;;5073302;28;20747;-58
2023/05/02 06:33:29;;;;;;;20.37;19.17;;;13.80;34.80;;;;;;5073573;28;20456;-52
2023/05/02 06:35:55;;;;;;;20.20;19.10;;;13.80;34.80;;;;;;5071511;28;20463;-54
2023/05/02 06:38:21;;;;;;;21.60;19.80;;;13.80;34.80;;;;;;5074482;28;20432;-59
2023/05/02 06:40:47;;;;;;;21.23;20.13;;;13.80;34.90;;;;;;5075643;28;20413;-59
2023/05/02 06:43:13;;;;;;;22.30;21.10;;;13.80;34.80;;;;;;5075261;28;20409;-60
2023/05/02 06:45:40;;;;;;;21.83;20.57;;;13.80;34.90;;;;;;5076622;28;20435;-61
2023/05/02 06:48:06;;;;;;;23.67;22.20;;;13.90;34.90;;;;;;5076488;28;21000;-55
2023/05/02 06:50:32;;;;;;;24.00;22.70;;;13.80;34.80;;;;;;5074951;28;20473;-52
2023/05/02 06:52:58;;;;;;;20.60;19.37;;;13.90;34.90;;;;;;5072892;28;20416;-54
2023/05/02 06:55:25;;;;;;;23.00;21.60;;;13.80;34.80;;;;;;5092690;28;20506;-51
2023/05/02 06:57:51;;;;;;;22.77;21.47;;;13.90;35.00;;;;;;5076069;28;20175;-55
2023/05/02 07:00:18;;;;;;;24.30;22.60;;;13.90;34.50;;;;;;5074045;28;20780;-52
2023/05/02 07:02:47;;;;;;;23.27;21.90;;;13.90;34.90;;;;;;5092685;28;20413;-53
2023/05/02 07:05:16;;;;;;;23.27;21.67;;;13.80;34.90;;;;;;5076184;28;20796;-53
2023/05/02 07:07:42;;;;;;;22.80;21.50;;;13.80;35.10;;;;;;5075726;28;20516;-52
2023/05/02 07:10:09;;;;;;;23.60;22.30;;;13.90;35.00;;;;;;5075016;28;20444;-52
2023/05/02 07:12:35;;;;;;;24.27;22.77;;;13.90;34.90;;;;;;5075203;28;20444;-53
2023/05/02 07:15:01;;;;;;;25.57;23.87;;;13.80;34.80;;;;;;5075768;28;20503;-54
2023/05/02 07:17:26;;;;;;;25.23;23.63;;;13.80;34.80;;;;;;5075843;28;20190;-55
2023/05/02 07:19:53;;;;;;;25.60;24.00;;;13.90;34.90;;;;;;5074821;28;20181;-55
2023/05/02 07:22:19;;;;;;;26.47;24.97;;;13.90;34.90;;;;;;5072043;28;20596;-55
2023/05/02 07:24:45;;;;;;;29.47;27.23;;;13.90;34.90;;;;;;5074376;28;20470;-54
2023/05/02 07:27:12;;;;;;;27.60;25.83;;;13.90;34.90;;;;;;5074669;28;20417;-53
2023/05/02 07:29:37;;;;;;;28.10;26.20;;;13.90;35.00;;;;;;5074825;28;20235;-53
2023/05/02 07:32:05;;;;;;;26.37;24.77;;;13.80;35.20;;;;;;5073982;28;20443;-55
2023/05/02 07:34:31;;;;;;;25.67;24.07;;;13.80;36.40;;;;;;5074855;28;20463;-49
2023/05/02 07:36:57;;;;;;;26.93;25.13;;;13.90;36.20;;;;;;5074444;28;20904;-52
2023/05/02 07:39:24;;;;;;;27.67;25.70;;;13.90;35.90;;;;;;5073822;28;20424;-54
2023/05/02 07:41:51;;;;;;;29.57;27.57;;;14.00;36.30;;;;;;5073711;28;20412;-51
2023/05/02 07:44:17;;;;;;;28.03;26.13;;;14.00;36.20;;;;;;5071911;28;20420;-57
2023/05/02 07:46:42;;;;;;;28.67;26.97;;;14.00;36.50;;;;;;5074309;28;20455;-54
2023/05/02 07:49:08;;;;;;;29.37;27.47;;;14.00;35.60;;;;;;5075118;28;20178;-55
2023/05/02 07:51:34;;;;;;;29.80;27.90;;;14.10;35.10;;;;;;5074002;28;20178;-50
2023/05/02 07:54:00;;;;;;;31.20;28.90;;;14.10;35.10;;;;;;5073322;28;20606;-49
2023/05/02 07:56:26;;;;;;;31.57;29.67;;;14.10;35.10;;;;;;5073359;28;20595;-51
2023/05/02 07:58:52;;;;;;;31.33;29.33;;;14.10;35.10;;;;;;5072445;28;20495;-53
2023/05/02 08:01:19;;;;;;;32.07;29.97;;;14.00;35.00;;;;;;5071243;28;20877;-52
2023/05/02 08:03:45;;;;;;;30.10;28.00;;;13.80;35.50;;;;;;5073821;28;20592;-53
2023/05/02 08:06:12;;;;;;;32.20;29.90;;;13.80;36.20;;;;;;5073244;28;20931;-54
2023/05/02 08:08:37;;;;;;;31.27;29.10;;;13.90;35.70;;;;;;5073249;28;20470;-53
2023/05/02 08:11:03;;;;;;;33.57;31.37;;;14.00;35.50;;;;;;5072762;28;20448;-52
2023/05/02 08:13:29;;;;;;;33.83;31.67;;;14.00;35.70;;;;;;5071130;28;20236;-51
2023/05/02 08:15:56;;;;;;;34.83;32.60;;;14.00;35.10;;;;;;5073695;28;20461;-54
2023/05/02 08:18:23;;;;;;;32.83;30.73;;;13.90;35.80;;;;;;5070558;28;20171;-55
2023/05/02 08:20:49;;;;;;;33.57;31.40;;;13.80;36.60;;;;;;5072906;28;20470;-51
2023/05/02 08:23:15;;;;;;;36.40;34.10;;;13.80;36.70;;;;;;5070643;28;20781;-53
2023/05/02 08:25:41;;;;;;;33.10;30.83;;;13.90;36.60;;;;;;5071486;28;20462;-52
2023/05/02 08:28:07;;;;;;;34.17;31.87;;;14.00;36.50;;;;;;5072809;28;20413;-52
2023/05/02 08:30:33;;;;;;;33.77;31.57;;;14.00;35.70;;;;;;5072621;28;20175;-53
2023/05/02 08:32:58;;;;;;;32.83;30.67;;;14.10;35.40;;;;;;5090056;28;20419;-52
2023/05/02 08:35:24;;;;;;;34.50;32.20;;;14.10;35.10;;;;;;5071677;28;20741;-49
2023/05/02 08:37:49;;;;;;;34.93;32.43;;;13.90;36.20;;;;;;5067632;28;20186;-52
2023/05/02 08:40:16;;;;;;;35.57;33.17;;;14.00;36.20;;;;;;5079191;28;20193;-49
2023/05/02 08:42:43;;;;;;;32.37;30.27;;;14.10;35.80;;;;;;5089002;28;20178;-53
2023/05/02 08:45:11;;;;;;;36.57;33.67;;;14.10;35.30;;;;;;5066852;28;20428;-52
2023/05/02 08:47:39;;;;;;;34.80;32.50;;;14.20;35.30;;;;;;5087181;28;20432;-59
2023/05/02 08:50:05;;;;;;;33.90;31.70;;;14.30;35.30;;;;;;5090817;28;20420;-61
2023/05/02 08:52:31;;;;;;;33.60;31.23;;;14.40;35.00;;;;;;5086621;28;20472;-61
2023/05/02 08:55:00;;;;;;;34.53;32.13;;;14.50;34.70;;;;;;5088785;28;20452;-61
2023/05/02 08:57:28;;;;;;;34.83;32.30;;;14.50;34.00;;;;;;5085988;28;20417;-61
2023/05/02 08:59:54;;;;;;;33.80;31.50;;;14.60;33.80;;;;;;5089253;28;20500;-61
2023/05/02 09:02:23;;;;;;;33.60;31.30;;;14.70;33.10;;;;;;5088040;28;20839;-61
2023/05/02 09:04:53;;;;;;;32.17;29.90;;;14.70;33.10;;;;;;5090732;28;20189;-61
2023/05/02 09:07:18;;;;;;;33.00;30.80;;;14.80;32.70;;;;;;5088823;28;20424;-61
2023/05/02 09:09:44;;;;;;;32.10;29.90;;;14.80;32.90;;;;;;5071616;28;20437;-61
2023/05/02 09:12:10;;;;;;;32.80;30.60;;;14.80;32.90;;;;;;5087873;28;20626;-60
2023/05/02 09:14:35;;;;;;;31.57;29.37;;;14.80;33.50;;;;;;5088377;28;20568;-60
2023/05/02 09:17:01;;;;;;;31.57;29.47;;;14.80;32.90;;;;;;5087587;28;20182;-61
2023/05/02 09:19:27;;;;;;;32.00;29.60;;;14.80;31.70;;;;;;5090680;28;20178;-61
2023/05/02 09:21:59;;;;;;;32.80;30.50;;;14.90;31.30;;;;;;5090029;28;20205;-61
2023/05/02 09:24:25;;;;;;;31.70;29.47;;;14.90;31.60;;;;;;5090026;28;20210;-61
2023/05/02 09:27:02;;;;;;;32.10;29.90;;;14.90;31.40;;;;;;5090656;28;20467;-62
2023/05/02 09:29:34;;;;;;;33.50;31.20;;;14.90;31.70;;;;;;5089301;28;20181;-61
2023/05/02 09:32:02;;;;;;;31.63;29.40;;;14.90;31.30;;;;;;5089989;28;20425;-61
2023/05/02 09:34:28;;;;;;;29.70;27.90;;;14.80;32.20;;;;;;5090810;28;20801;-61
2023/05/02 09:36:54;;;;;;;31.57;29.37;;;15.00;31.60;;;;;;5090878;28;20413;-61
2023/05/02 09:39:21;;;;;;;30.60;28.40;;;15.00;30.70;;;;;;5091126;28;20228;-60
2023/05/02 09:41:47;;;;;;;32.07;29.67;;;15.10;31.50;;;;;;5073468;28;20690;-60
2023/05/02 09:44:17;;;;;;;30.47;28.47;;;15.20;31.10;;;;;;5090848;28;20485;-61
2023/05/02 09:46:44;;;;;;;31.20;29.10;;;15.30;30.50;;;;;;5090891;28;20909;-60
2023/05/02 09:49:10;;;;;;;30.40;28.03;;;15.40;30.00;;;;;;5094615;28;20419;-60
2023/05/02 09:51:36;;;;;;;29.23;27.33;;;15.40;29.90;;;;;;5077285;28;20408;-61
2023/05/02 09:54:02;;;;;;;31.70;29.40;;;15.50;29.70;;;;;;5094448;28;20194;-61
2023/05/02 09:56:28;;;;;;;33.33;31.17;;;15.40;29.40;;;;;;5096078;28;20665;-61
2023/05/02 09:59:16;;;;;;;33.47;31.17;;;15.60;30.00;;;;;;5094486;28;20421;-60
2023/05/02 10:01:42;;;;;;;33.93;31.67;;;15.80;28.50;;;;;;5076862;28;20270;-52
2023/05/02 10:04:18;;;;;;;32.50;30.20;;;15.90;28.50;;;;;;5094069;28;20499;-50
2023/05/02 10:06:44;;;;;;;32.10;30.00;;;16.00;28.40;;;;;;5094180;28;20420;-53
2023/05/02 10:09:11;;;;;;;29.77;27.77;;;15.90;27.80;;;;;;5095221;28;20436;-54
2023/05/02 10:11:43;;;;;;;32.20;30.10;;;15.90;28.00;;;;;;5093417;28;20417;-52
2023/05/02 10:14:11;;;;;;;32.53;30.43;;;16.00;28.40;;;;;;5093872;28;20424;-53
2023/05/02 10:16:53;;;;;;;31.30;29.07;;;16.00;28.00;;;;;;5093909;28;20416;-49
2023/05/02 10:19:26;;;;;;;30.53;28.53;;;16.00;28.50;;;;;;5093862;28;20470;-51
2023/05/02 10:21:53;;;;;;;32.37;30.17;;;16.10;27.30;;;;;;5076256;28;20425;-54
2023/05/02 10:24:20;;;;;;;31.37;29.27;;;16.30;27.00;;;;;;5093725;28;20905;-54
2023/05/02 10:26:47;;;;;;;30.07;28.07;;;16.20;26.70;;;;;;5093719;28;20413;-51
2023/05/02 10:29:12;;;;;;;29.67;27.47;;;16.40;27.50;;;;;;5093665;28;20423;-50
2023/05/02 10:31:41;;;;;;;27.83;25.97;;;16.50;26.20;;;;;;5092980;28;20417;-53
2023/05/02 10:34:09;;;;;;;27.83;25.87;;;16.70;25.90;;;;;;5093417;28;20188;-51
2023/05/02 10:36:35;;;;;;;26.20;24.40;;;16.70;26.70;;;;;;5093593;28;20788;-53
2023/05/02 10:39:02;;;;;;;28.17;26.10;;;16.70;25.60;;;;;;5093404;28;20416;-54
2023/05/02 10:41:31;;;;;;;26.93;25.07;;;16.60;25.40;;;;;;5094084;28;20497;-54
2023/05/02 10:43:57;;;;;;;27.37;25.47;;;16.70;25.00;;;;;;5093315;28;20819;-53
2023/05/02 10:46:33;;;;;;;26.20;24.30;;;16.60;25.50;;;;;;5093475;28;20415;-51
2023/05/02 10:49:01;;;;;;;25.97;24.23;;;16.60;24.60;;;;;;5093263;28;20431;-52
2023/05/02 10:51:30;;;;;;;25.83;23.87;;;16.60;23.70;;;;;;5092584;28;20420;-50
2023/05/02 10:54:21;;;;;;;24.93;23.23;;;16.50;24.30;;;;;;5093216;28;20500;-53
2023/05/02 10:57:02;;;;;;;23.47;21.87;;;16.50;24.40;;;;;;5093117;28;20777;-54
2023/05/02 10:59:41;;;;;;;26.43;24.53;;;16.70;23.60;;;;;;5092807;28;20447;-52
2023/05/02 11:02:22;;;;;;;25.70;23.80;;;16.70;23.30;;;;;;5092191;28;20412;-53
2023/05/02 11:05:04;;;;;;;26.00;24.20;;;16.80;23.80;;;;;;5082335;28;20420;-61
2023/05/02 11:07:33;;;;;;;25.17;23.13;;;16.90;23.20;;;;;;5075635;28;20412;-62
2023/05/02 11:10:17;;;;;;;25.50;23.60;;;16.90;22.70;;;;;;5074836;28;20429;-60
2023/05/02 11:12:48;;;;;;;23.30;21.70;;;16.90;22.70;;;;;;5074791;28;20413;-61
2023/05/02 11:15:28;;;;;;;25.13;23.50;;;16.90;22.00;;;;;;5074862;28;20452;-61
2023/05/02 11:18:13;;;;;;;24.63;22.93;;;16.90;22.60;;;;;;5075013;28;20428;-50
2023/05/02 11:20:43;;;;;;;25.10;23.40;;;16.90;23.20;;;;;;5074792;28;20466;-54
2023/05/02 11:23:15;;;;;;;21.30;19.50;;;16.90;23.00;;;;;;5074331;28;20941;-52
2023/05/02 11:25:42;;;;;;;19.50;17.93;;;16.90;23.20;;;;;;5075355;28;20894;-54
2023/05/02 11:28:28;;;;;;;20.40;18.70;;;16.80;23.00;;;;;;5074579;28;20432;-54
2023/05/02 11:30:53;;;;;;;24.87;23.17;;;16.80;22.80;;;;;;5074594;28;20419;-53
2023/05/02 11:33:19;;;;;;;26.97;25.17;;;16.80;22.90;;;;;;5074356;28;20424;-53
2023/05/02 11:35:46;;;;;;;26.43;24.67;;;16.70;23.20;;;;;;5074205;28;20233;-55
2023/05/02 11:38:14;;;;;;;27.10;25.10;;;16.70;23.60;;;;;;5074555;28;20615;-55
2023/05/02 11:40:48;;;;;;;25.10;23.40;;;16.80;24.00;;;;;;5074728;28;20474;-54
2023/05/02 11:43:16;;;;;;;22.70;21.20;;;16.80;23.90;;;;;;5073955;28;20821;-51
2023/05/02 11:45:42;;;;;;;24.97;22.83;;;16.90;24.10;;;;;;5074515;28;20417;-55
2023/05/02 11:48:10;;;;;;;21.37;19.77;;;17.00;23.70;;;;;;5074274;28;20510;-53
2023/05/02 11:50:43;;;;;;;21.40;19.30;;;17.00;22.70;;;;;;5074100;28;20197;-54
2023/05/02 11:53:11;;;;;;;27.77;25.67;;;16.90;22.70;;;;;;5073592;28;20436;-53
2023/05/02 11:55:37;;;;;;;22.00;19.90;;;16.90;22.90;;;;;;5074361;28;20827;-53
2023/05/02 11:58:02;;;;;;;26.53;24.40;;;16.90;23.10;;;;;;5074232;28;20421;-53
2023/05/02 12:00:28;;;;;;;27.20;25.23;;;16.90;23.00;;;;;;5074264;28;20244;-54
2023/05/02 12:02:53;;;;;;;23.87;21.67;;;16.80;23.40;;;;;;5073547;28;20182;-53
2023/05/02 12:05:30;;;;;;;26.53;24.73;;;16.80;24.10;;;;;;5090554;28;20186;-53
2023/05/02 12:07:55;;;;;;;28.33;26.10;;;16.80;23.80;;;;;;5074028;28;20566;-50
2023/05/02 12:10:21;;;;;;;26.20;24.47;;;16.70;22.90;;;;;;5073472;28;20432;-51
2023/05/02 12:12:47;;;;;;;29.43;27.30;;;16.80;21.80;;;;;;5073548;28;20553;-51
2023/05/02 12:15:12;;;;;;;22.93;20.93;;;16.90;22.90;;;;;;5073623;28;20638;-53
2023/05/02 12:17:40;;;;;;;28.60;26.50;;;17.00;22.30;;;;;;5074417;28;20193;-52
2023/05/02 12:20:08;;;;;;;22.53;20.53;;;17.10;22.00;;;;;;5072964;28;20191;-53
2023/05/02 12:22:34;;;;;;;29.00;26.80;;;17.10;21.80;;;;;;5073557;28;20822;-54
2023/05/02 12:25:02;;;;;;;27.70;25.40;;;17.10;22.10;;;;;;5073624;28;20427;-54
2023/05/02 12:27:28;;;;;;;25.70;23.70;;;17.20;21.80;;;;;;5074047;28;20424;-53
2023/05/02 12:29:56;;;;;;;27.43;25.13;;;17.30;22.10;;;;;;5073303;28;20424;-55
2023/05/02 12:32:35;;;;;;;23.00;20.80;;;17.40;22.40;;;;;;5073356;28;20431;-54
2023/05/02 12:35:02;;;;;;;24.17;21.73;;;17.40;22.20;;;;;;5072920;28;21004;-54